createdAt,value
2022-07-31T00:00:53.172Z,70.04
2022-07-31T00:03:21.348Z,70.37
2022-07-31T00:05:50.907Z,70.46
2022-07-31T00:08:19.141Z,69.50
2022-07-31T00:10:47.251Z,69.23
2022-07-31T00:13:15.375Z,70.10
2022-07-31T00:15:43.505Z,69.55
2022-07-31T00:18:12.244Z,69.04
2022-07-31T00:20:40.424Z,68.96
2022-07-31T00:23:10.977Z,69.09
2022-07-31T00:25:39.660Z,68.83
2022-07-31T00:28:08.360Z,68.70
2022-07-31T00:30:36.542Z,68.22
2022-07-31T00:33:05.290Z,68.63
2022-07-31T00:35:33.359Z,68.07
2022-07-31T00:38:25.617Z,68.82
2022-07-31T00:40:51.195Z,68.00
2022-07-31T00:43:19.733Z,68.10
2022-07-31T00:45:49.374Z,67.83
2022-07-31T00:48:27.584Z,68.18
2022-07-31T00:50:56.241Z,68.20
2022-07-31T00:53:24.436Z,68.39
2022-07-31T00:55:54.043Z,68.56
2022-07-31T00:58:22.151Z,68.12
2022-07-31T01:00:51.248Z,67.48
2022-07-31T01:03:19.846Z,67.24
2022-07-31T01:05:47.965Z,67.10
2022-07-31T01:08:16.614Z,67.24
2022-07-31T01:10:51.985Z,67.70
2022-07-31T01:13:28.090Z,67.93
2022-07-31T01:15:58.695Z,67.74
2022-07-31T01:18:28.135Z,68.64
2022-07-31T01:20:57.591Z,68.52
2022-07-31T01:24:05.348Z,68.32
2022-07-31T01:27:00.710Z,68.06
2022-07-31T01:29:31.951Z,67.61
2022-07-31T01:32:03.282Z,68.19
2022-07-31T01:34:36.399Z,68.27
2022-07-31T01:37:13.896Z,69.05
2022-07-31T01:39:45.367Z,68.85
2022-07-31T01:42:15.635Z,68.44
2022-07-31T01:44:46.623Z,68.43
2022-07-31T01:47:18.663Z,68.29
2022-07-31T01:49:47.698Z,67.93
2022-07-31T01:52:19.385Z,67.75
2022-07-31T01:54:48.942Z,68.13
2022-07-31T01:57:18.735Z,67.12
2022-07-31T01:59:55.804Z,67.87
2022-07-31T02:02:47.037Z,67.41
2022-07-31T02:05:17.262Z,67.13
2022-07-31T02:07:46.581Z,66.20
2022-07-31T02:10:17.121Z,66.47
2022-07-31T02:12:46.459Z,66.08
2022-07-31T02:15:17.763Z,66.00
2022-07-31T02:17:47.624Z,66.21
2022-07-31T02:20:36.438Z,66.91
2022-07-31T02:23:04.564Z,66.57
2022-07-31T02:25:33.324Z,66.68
2022-07-31T02:28:04.949Z,66.56
2022-07-31T02:30:38.326Z,66.09
2022-07-31T02:33:10.121Z,66.58
2022-07-31T02:35:39.449Z,66.54
2022-07-31T02:38:22.201Z,66.78
2022-07-31T02:40:59.297Z,66.53
2022-07-31T02:43:29.902Z,67.07
2022-07-31T02:46:02.258Z,66.60
2022-07-31T02:48:31.128Z,66.58
2022-07-31T02:51:03.898Z,66.60
2022-07-31T02:53:32.892Z,66.95
2022-07-31T02:56:04.815Z,66.15
2022-07-31T02:58:42.016Z,66.19
2022-07-31T03:01:17.257Z,66.55
2022-07-31T03:03:47.040Z,66.76
2022-07-31T03:06:16.439Z,66.69
2022-07-31T03:08:44.669Z,66.96
2022-07-31T03:11:15.809Z,67.25
2022-07-31T03:13:44.799Z,67.12
2022-07-31T03:16:13.649Z,66.18
2022-07-31T03:18:43.372Z,66.59
2022-07-31T03:21:11.989Z,66.53
2022-07-31T03:23:40.443Z,66.83
2022-07-31T03:26:20.778Z,66.17
2022-07-31T03:28:49.390Z,66.02
2022-07-31T03:31:17.756Z,67.10
2022-07-31T03:33:47.459Z,67.25
2022-07-31T03:36:17.574Z,67.40
2022-07-31T03:38:50.471Z,67.47
2022-07-31T03:41:35.827Z,67.40
2022-07-31T03:44:04.067Z,67.17
2022-07-31T03:46:32.281Z,67.90
2022-07-31T03:49:02.277Z,67.14
2022-07-31T03:51:30.660Z,67.57
2022-07-31T03:53:59.684Z,67.35
2022-07-31T03:56:45.298Z,67.67
2022-07-31T03:59:16.268Z,67.06
2022-07-31T04:01:57.548Z,67.29
2022-07-31T04:05:00.630Z,67.48
2022-07-31T04:07:29.056Z,67.97
2022-07-31T04:09:57.386Z,66.89
2022-07-31T04:12:26.709Z,66.69
2022-07-31T04:14:54.816Z,67.53
2022-07-31T04:17:23.210Z,66.98
2022-07-31T04:19:51.300Z,67.47
2022-07-31T04:22:20.928Z,66.96
2022-07-31T04:24:49.789Z,67.09
2022-07-31T04:27:27.111Z,67.82
2022-07-31T04:29:57.653Z,66.71
2022-07-31T04:32:25.808Z,67.65
2022-07-31T04:34:56.395Z,67.42
2022-07-31T04:37:26.676Z,67.04
2022-07-31T04:39:55.041Z,67.29
2022-07-31T04:42:23.417Z,66.98
2022-07-31T04:44:52.144Z,66.44
2022-07-31T04:47:22.840Z,66.49
2022-07-31T04:49:52.684Z,66.52
2022-07-31T04:52:20.791Z,66.26
2022-07-31T04:54:52.645Z,66.13
2022-07-31T04:57:22.155Z,66.70
2022-07-31T05:00:00.705Z,66.95
2022-07-31T05:02:32.334Z,67.21
2022-07-31T05:05:00.561Z,66.77
2022-07-31T05:07:34.750Z,66.78
2022-07-31T05:10:30.823Z,66.87
2022-07-31T05:12:59.115Z,66.83
2022-07-31T05:15:27.552Z,66.93
2022-07-31T05:17:57.707Z,66.15
2022-07-31T05:20:44.276Z,66.02
2022-07-31T05:23:49.730Z,65.57
2022-07-31T05:26:26.697Z,65.25
2022-07-31T05:28:58.632Z,65.09
2022-07-31T05:31:27.895Z,65.12
2022-07-31T05:33:57.818Z,64.58
2022-07-31T05:36:26.279Z,64.28
2022-07-31T05:38:55.596Z,63.96
2022-07-31T05:41:34.584Z,64.14
2022-07-31T05:44:17.758Z,64.24
2022-07-31T05:49:17.986Z,63.72
2022-07-31T05:51:54.185Z,62.64
2022-07-31T05:54:22.590Z,63.16
2022-07-31T05:57:33.444Z,62.27
2022-07-31T06:00:04.216Z,62.28
2022-07-31T06:02:39.877Z,62.54
2022-07-31T06:05:28.240Z,61.80
2022-07-31T06:07:56.682Z,62.24
2022-07-31T06:10:25.374Z,62.46
2022-07-31T06:12:55.318Z,62.12
2022-07-31T06:15:23.636Z,61.50
2022-07-31T06:17:52.185Z,61.66
2022-07-31T06:20:28.468Z,62.14
2022-07-31T06:22:57.293Z,61.39
2022-07-31T06:25:29.010Z,61.20
2022-07-31T06:28:04.091Z,60.32
2022-07-31T06:30:33.539Z,61.03
2022-07-31T06:33:04.332Z,61.30
2022-07-31T06:35:37.564Z,60.82
2022-07-31T06:38:33.365Z,60.83
2022-07-31T06:41:34.248Z,60.17
2022-07-31T06:44:23.761Z,59.44
2022-07-31T06:47:17.854Z,59.78
2022-07-31T06:50:07.396Z,60.10
2022-07-31T06:52:39.363Z,59.00
2022-07-31T06:55:08.574Z,58.81
2022-07-31T06:57:36.724Z,58.99
2022-07-31T07:00:19.596Z,58.40
2022-07-31T07:02:48.889Z,58.38
2022-07-31T07:05:17.186Z,58.65
2022-07-31T07:07:46.806Z,57.47
2022-07-31T07:10:15.402Z,57.57
2022-07-31T07:13:03.669Z,57.26
2022-07-31T07:15:37.706Z,56.64
2022-07-31T07:18:07.294Z,56.21
2022-07-31T07:20:55.724Z,55.37
2022-07-31T07:23:24.123Z,55.89
2022-07-31T07:26:07.402Z,55.35
2022-07-31T07:28:36.870Z,54.37
2022-07-31T07:31:08.233Z,54.54
2022-07-31T07:33:41.241Z,54.05
2022-07-31T07:36:23.223Z,53.85
2022-07-31T07:39:02.168Z,52.10
2022-07-31T07:41:31.375Z,52.23
2022-07-31T07:44:00.729Z,52.71
2022-07-31T07:46:31.739Z,52.71
2022-07-31T07:49:05.495Z,53.41
2022-07-31T07:51:59.320Z,54.42
2022-07-31T07:54:39.977Z,53.68
2022-07-31T07:57:18.510Z,53.54
2022-07-31T08:00:08.403Z,53.82
2022-07-31T08:03:46.648Z,54.23
2022-07-31T08:05:40.790Z,54.55
2022-07-31T08:08:09.053Z,55.28
2022-07-31T08:10:48.788Z,54.82
2022-07-31T08:13:49.310Z,55.09
2022-07-31T08:16:53.762Z,54.43
2022-07-31T08:19:26.145Z,54.54
2022-07-31T08:21:54.340Z,54.08
2022-07-31T08:24:22.736Z,53.36
2022-07-31T08:27:10.526Z,53.40
2022-07-31T08:29:38.965Z,53.13
2022-07-31T08:32:18.030Z,52.59
2022-07-31T08:35:07.112Z,52.83
2022-07-31T08:37:52.454Z,51.47
2022-07-31T08:40:23.867Z,51.02
2022-07-31T08:42:52.137Z,51.75
2022-07-31T08:45:20.407Z,51.27
2022-07-31T08:47:58.563Z,51.00
2022-07-31T08:50:32.268Z,49.70
2022-07-31T08:53:03.924Z,50.32
2022-07-31T08:55:55.648Z,50.53
2022-07-31T08:58:26.512Z,50.40
2022-07-31T09:00:55.162Z,49.73
2022-07-31T09:03:23.907Z,48.78
2022-07-31T09:05:57.187Z,47.96
2022-07-31T09:08:26.402Z,50.00
2022-07-31T09:11:05.956Z,48.91
2022-07-31T09:13:38.543Z,48.48
2022-07-31T09:16:24.394Z,50.30
2022-07-31T09:19:00.670Z,49.44
2022-07-31T09:21:40.056Z,47.77
2022-07-31T09:24:10.310Z,46.91
2022-07-31T09:26:40.961Z,45.64
2022-07-31T09:29:12.776Z,45.13
2022-07-31T09:31:41.971Z,43.21
2022-07-31T09:34:49.480Z,41.17
2022-07-31T09:37:22.597Z,39.44
2022-07-31T09:40:10.653Z,39.24
2022-07-31T09:42:45.752Z,39.49
2022-07-31T09:45:22.744Z,38.16
2022-07-31T09:48:16.146Z,37.97
2022-07-31T09:50:57.055Z,38.67
2022-07-31T09:53:27.748Z,38.81
2022-07-31T09:56:16.143Z,39.12
2022-07-31T09:58:44.660Z,39.60
2022-07-31T10:01:14.180Z,38.42
2022-07-31T10:03:43.024Z,38.84
2022-07-31T10:06:16.443Z,38.81
2022-07-31T10:08:47.283Z,38.36
2022-07-31T10:11:27.693Z,37.84
2022-07-31T10:14:12.556Z,38.49
2022-07-31T10:16:41.829Z,37.27
2022-07-31T10:19:13.710Z,37.15
2022-07-31T10:22:03.038Z,37.76
2022-07-31T10:24:42.039Z,38.18
2022-07-31T10:27:11.040Z,38.09
2022-07-31T10:29:41.396Z,37.04
2022-07-31T10:32:10.763Z,37.49
2022-07-31T10:34:58.803Z,37.80
2022-07-31T10:37:55.239Z,37.36
2022-07-31T10:41:03.862Z,37.76
2022-07-31T10:43:40.939Z,37.45
2022-07-31T10:46:14.349Z,37.37
2022-07-31T10:48:52.798Z,37.29
2022-07-31T10:51:59.477Z,36.95
2022-07-31T10:54:47.191Z,36.50
2022-07-31T10:57:56.434Z,36.04
2022-07-31T11:01:17.458Z,36.60
2022-07-31T11:04:06.061Z,36.76
2022-07-31T11:06:49.950Z,36.36
2022-07-31T11:09:51.446Z,37.01
2022-07-31T11:13:01.850Z,36.99
2022-07-31T11:15:48.779Z,36.39
2022-07-31T11:18:35.810Z,37.04
2022-07-31T11:21:38.033Z,37.07
2022-07-31T11:24:02.941Z,37.46
2022-07-31T11:26:41.432Z,37.67
2022-07-31T11:29:58.940Z,37.61
2022-07-31T11:32:02.201Z,37.84
2022-07-31T11:34:30.363Z,37.82
2022-07-31T11:36:58.658Z,37.84
2022-07-31T11:39:36.765Z,37.52
2022-07-31T11:42:07.456Z,37.68
2022-07-31T11:44:37.660Z,38.08
2022-07-31T11:48:09.944Z,38.30
2022-07-31T11:50:02.443Z,38.04
2022-07-31T11:52:36.813Z,37.19
2022-07-31T11:55:09.431Z,37.63
2022-07-31T11:57:51.152Z,37.89
2022-07-31T12:00:29.177Z,38.14
2022-07-31T12:02:58.885Z,37.89
2022-07-31T12:05:38.719Z,36.93
2022-07-31T12:08:08.349Z,36.96
2022-07-31T12:10:36.532Z,36.48
2022-07-31T12:13:04.759Z,36.88
2022-07-31T12:15:34.445Z,37.20
2022-07-31T12:18:03.398Z,37.65
2022-07-31T12:20:36.573Z,36.50
2022-07-31T12:23:06.546Z,36.00
2022-07-31T12:25:42.418Z,35.54
2022-07-31T12:28:11.199Z,35.68
2022-07-31T12:30:40.977Z,35.89
2022-07-31T12:33:11.002Z,36.84
2022-07-31T12:35:56.062Z,35.91
2022-07-31T12:38:47.796Z,35.13
2022-07-31T12:41:14.836Z,34.78
2022-07-31T12:43:50.879Z,34.90
2022-07-31T12:46:22.518Z,35.31
2022-07-31T12:48:50.919Z,35.15
2022-07-31T12:51:43.869Z,33.82
2022-07-31T12:54:09.346Z,33.34
2022-07-31T12:56:37.802Z,34.88
2022-07-31T12:59:06.737Z,35.60
2022-07-31T13:01:36.868Z,35.90
2022-07-31T13:04:07.728Z,35.17
2022-07-31T13:06:37.592Z,35.27
2022-07-31T13:09:06.315Z,34.63
2022-07-31T13:11:45.997Z,33.90
2022-07-31T13:14:16.896Z,33.01
2022-07-31T13:16:46.730Z,32.36
2022-07-31T13:19:15.331Z,33.32
2022-07-31T13:21:49.571Z,33.40
2022-07-31T13:24:20.095Z,32.96
2022-07-31T13:26:51.496Z,32.50
2022-07-31T13:29:23.003Z,32.56
2022-07-31T13:31:55.868Z,31.78
2022-07-31T13:34:23.988Z,30.95
2022-07-31T13:36:52.188Z,30.54
2022-07-31T13:39:21.427Z,30.62
2022-07-31T13:41:49.667Z,31.57
2022-07-31T13:44:17.896Z,31.58
2022-07-31T13:46:46.730Z,30.52
2022-07-31T13:49:16.323Z,30.62
2022-07-31T13:51:44.524Z,30.12
2022-07-31T13:54:13.036Z,31.38
2022-07-31T13:56:43.638Z,32.53
2022-07-31T13:59:13.962Z,32.67
2022-07-31T14:02:03.405Z,33.41
2022-07-31T14:04:38.729Z,33.87
2022-07-31T14:07:08.644Z,34.12
2022-07-31T14:09:37.751Z,33.58
2022-07-31T14:12:06.699Z,33.36
2022-07-31T14:14:35.637Z,33.42
2022-07-31T14:17:03.776Z,33.72
2022-07-31T14:19:44.208Z,33.10
2022-07-31T14:22:14.851Z,31.96
2022-07-31T14:24:50.657Z,32.80
2022-07-31T14:27:19.703Z,33.37
2022-07-31T14:29:47.875Z,31.94
2022-07-31T14:32:16.124Z,31.83
2022-07-31T14:34:47.363Z,32.75
2022-07-31T14:37:17.984Z,33.02
2022-07-31T14:39:46.133Z,33.25
2022-07-31T14:42:14.473Z,31.19
2022-07-31T14:44:42.870Z,31.81
2022-07-31T14:47:11.419Z,32.66
2022-07-31T14:50:08.882Z,33.36
2022-07-31T14:52:29.261Z,34.28
2022-07-31T14:54:59.082Z,34.11
2022-07-31T14:57:27.774Z,34.14
2022-07-31T14:59:55.939Z,34.15
2022-07-31T15:02:24.235Z,34.38
2022-07-31T15:04:53.046Z,34.44
2022-07-31T15:07:43.571Z,34.06
2022-07-31T15:10:12.418Z,34.15
2022-07-31T15:12:40.731Z,34.43
2022-07-31T15:15:10.010Z,34.44
2022-07-31T15:17:38.204Z,34.25
2022-07-31T15:20:07.336Z,34.34
2022-07-31T15:22:35.414Z,33.12
2022-07-31T15:25:03.609Z,33.13
2022-07-31T15:27:33.254Z,32.46
2022-07-31T15:30:06.978Z,31.85
2022-07-31T15:32:37.129Z,32.12
2022-07-31T15:35:06.693Z,30.73
2022-07-31T15:37:36.427Z,30.57
2022-07-31T15:40:06.686Z,31.06
2022-07-31T15:42:40.156Z,31.41
2022-07-31T15:45:10.558Z,31.39
2022-07-31T15:47:39.298Z,30.56
2022-07-31T15:50:09.820Z,30.31
2022-07-31T15:52:41.240Z,30.66
2022-07-31T15:55:12.683Z,29.62
2022-07-31T15:57:42.518Z,30.81
2022-07-31T16:00:12.339Z,31.43
2022-07-31T16:02:41.611Z,32.26
2022-07-31T16:05:21.432Z,32.19
2022-07-31T16:08:32.082Z,32.33
2022-07-31T16:10:51.136Z,33.07
2022-07-31T16:13:23.907Z,33.12
2022-07-31T16:15:55.628Z,33.66
2022-07-31T16:18:23.836Z,35.12
2022-07-31T16:20:53.106Z,36.11
2022-07-31T16:23:21.467Z,38.21
2022-07-31T16:25:49.580Z,39.60
2022-07-31T16:28:17.736Z,40.42
2022-07-31T16:30:47.258Z,41.30
2022-07-31T16:33:15.617Z,41.15
2022-07-31T16:35:44.215Z,41.35
2022-07-31T16:38:12.874Z,41.77
2022-07-31T16:40:41.114Z,40.91
2022-07-31T16:43:47.311Z,41.37
2022-07-31T16:45:59.339Z,41.01
2022-07-31T16:48:27.528Z,41.23
2022-07-31T16:50:55.793Z,41.00
2022-07-31T16:54:10.780Z,40.95
2022-07-31T16:56:13.031Z,39.61
2022-07-31T16:58:41.286Z,39.24
2022-07-31T17:01:54.044Z,40.00
2022-07-31T17:04:08.624Z,41.03
2022-07-31T17:06:38.235Z,41.30
2022-07-31T17:09:16.597Z,41.80
2022-07-31T17:11:51.161Z,42.34
2022-07-31T17:14:21.483Z,42.36
2022-07-31T17:16:51.820Z,41.85
2022-07-31T17:19:41.019Z,42.36
2022-07-31T17:22:18.110Z,42.81
2022-07-31T17:24:51.067Z,42.23
2022-07-31T17:27:20.911Z,42.19
2022-07-31T17:29:49.225Z,42.34
2022-07-31T17:32:18.774Z,42.62
2022-07-31T17:34:49.376Z,42.56
2022-07-31T17:37:18.270Z,42.96
2022-07-31T17:39:47.478Z,42.78
2022-07-31T17:42:15.792Z,42.99
2022-07-31T17:44:46.900Z,43.10
2022-07-31T17:47:20.250Z,42.71
2022-07-31T17:49:49.054Z,42.96
2022-07-31T17:52:17.500Z,43.35
2022-07-31T17:54:45.747Z,43.09
2022-07-31T17:57:13.880Z,43.14
2022-07-31T17:59:42.204Z,42.93
2022-07-31T18:02:11.058Z,43.17
2022-07-31T18:04:40.917Z,42.92
2022-07-31T18:07:11.358Z,42.79
2022-07-31T18:09:39.549Z,42.85
2022-07-31T18:12:13.504Z,42.96
2022-07-31T18:14:43.607Z,42.79
2022-07-31T18:17:11.807Z,42.67
2022-07-31T18:19:41.398Z,42.65
2022-07-31T18:22:09.661Z,42.73
2022-07-31T18:24:38.214Z,42.38
2022-07-31T18:27:07.623Z,42.31
2022-07-31T18:29:35.971Z,42.42
2022-07-31T18:32:06.865Z,42.77
2022-07-31T18:34:35.186Z,42.54
2022-07-31T18:37:04.821Z,42.85
2022-07-31T18:39:33.142Z,43.00
2022-07-31T18:42:16.144Z,42.71
2022-07-31T18:44:44.471Z,43.03
2022-07-31T18:47:12.703Z,42.78
2022-07-31T18:51:00.946Z,42.32
2022-07-31T18:52:30.751Z,42.70
2022-07-31T18:54:58.927Z,42.72
2022-07-31T18:57:27.117Z,42.93
2022-07-31T18:59:55.281Z,43.09
2022-07-31T19:02:23.739Z,43.12
2022-07-31T19:04:53.462Z,43.65
2022-07-31T19:07:21.587Z,43.63
2022-07-31T19:09:51.282Z,43.56
2022-07-31T19:12:19.771Z,43.90
2022-07-31T19:14:47.995Z,43.63
2022-07-31T19:17:21.259Z,43.65
2022-07-31T19:19:49.717Z,44.43
2022-07-31T19:22:23.797Z,44.62
2022-07-31T19:24:53.821Z,44.93
2022-07-31T19:27:22.574Z,44.88
2022-07-31T19:30:13.259Z,45.36
2022-07-31T19:32:41.539Z,45.83
2022-07-31T19:35:10.908Z,45.58
2022-07-31T19:37:39.113Z,45.71
2022-07-31T19:40:10.388Z,45.77
2022-07-31T19:42:39.523Z,46.48
2022-07-31T19:45:08.484Z,46.83
2022-07-31T19:47:36.883Z,46.67
2022-07-31T19:50:05.574Z,47.00
2022-07-31T19:52:33.882Z,46.51
2022-07-31T19:55:02.313Z,46.38
2022-07-31T19:57:32.384Z,46.43
2022-07-31T20:00:00.864Z,46.41
2022-07-31T20:02:29.347Z,46.44
2022-07-31T20:04:57.792Z,46.36
2022-07-31T20:07:32.659Z,46.20
2022-07-31T20:10:01.934Z,45.62
2022-07-31T20:12:31.686Z,45.58
2022-07-31T20:15:00.720Z,45.13
2022-07-31T20:17:29.381Z,44.85
2022-07-31T20:20:14.763Z,45.46
2022-07-31T20:22:43.609Z,45.50
2022-07-31T20:25:19.688Z,45.01
2022-07-31T20:27:50.475Z,45.04
2022-07-31T20:30:21.977Z,45.27
2022-07-31T20:32:51.632Z,45.79
2022-07-31T20:35:29.179Z,45.77
2022-07-31T20:38:15.636Z,46.74
2022-07-31T20:40:52.894Z,47.02
2022-07-31T20:43:24.605Z,48.04
2022-07-31T20:45:53.153Z,48.82
2022-07-31T20:48:24.224Z,48.59
2022-07-31T20:50:53.449Z,48.21
2022-07-31T20:53:23.147Z,49.30
2022-07-31T20:55:51.470Z,49.24
2022-07-31T20:58:20.418Z,49.68
2022-07-31T21:00:50.425Z,49.89
2022-07-31T21:03:19.238Z,49.97
2022-07-31T21:05:48.518Z,50.06
2022-07-31T21:08:16.691Z,50.18
2022-07-31T21:10:45.316Z,50.64
2022-07-31T21:13:14.443Z,50.56
2022-07-31T21:15:45.279Z,51.28
2022-07-31T21:18:16.612Z,50.76
2022-07-31T21:20:51.156Z,51.40
2022-07-31T21:23:23.323Z,51.33
2022-07-31T21:25:52.429Z,51.94
2022-07-31T21:28:21.108Z,52.36
2022-07-31T21:30:49.656Z,52.19
2022-07-31T21:33:19.703Z,52.28
2022-07-31T21:35:48.418Z,52.88
2022-07-31T21:38:17.152Z,52.93
2022-07-31T21:40:46.373Z,52.93
2022-07-31T21:43:18.507Z,52.79
2022-07-31T21:45:57.529Z,52.92
2022-07-31T21:48:32.833Z,52.73
2022-07-31T21:51:01.764Z,52.92
2022-07-31T21:53:29.975Z,53.24
2022-07-31T21:55:59.602Z,53.31
2022-07-31T21:58:28.081Z,53.25
2022-07-31T22:00:56.951Z,53.45
2022-07-31T22:03:25.834Z,53.31
2022-07-31T22:06:12.574Z,52.91
2022-07-31T22:08:40.823Z,52.84
2022-07-31T22:11:10.234Z,52.88
2022-07-31T22:13:38.755Z,52.65
2022-07-31T22:16:07.617Z,52.64
2022-07-31T22:18:35.951Z,52.64
2022-07-31T22:21:07.596Z,52.55
2022-07-31T22:23:36.639Z,52.78
2022-07-31T22:26:05.260Z,52.74
2022-07-31T22:28:34.936Z,52.57
2022-07-31T22:31:03.545Z,52.32
2022-07-31T22:33:31.996Z,52.73
2022-07-31T22:36:02.753Z,52.70
2022-07-31T22:38:32.418Z,52.76
2022-07-31T22:41:02.463Z,52.53
2022-07-31T22:44:13.735Z,52.50
2022-07-31T22:46:19.176Z,52.52
2022-07-31T22:48:47.827Z,52.87
2022-07-31T22:51:16.261Z,52.97
2022-07-31T22:53:49.162Z,52.68
2022-07-31T22:56:17.884Z,53.00
2022-07-31T22:58:46.259Z,53.09
2022-07-31T23:01:14.550Z,52.97
2022-07-31T23:03:42.715Z,53.39
2022-07-31T23:06:30.768Z,53.63
2022-07-31T23:09:02.091Z,54.04
2022-07-31T23:11:30.452Z,54.46
2022-07-31T23:13:58.555Z,54.58
2022-07-31T23:16:27.420Z,54.69
2022-07-31T23:18:55.632Z,54.97
2022-07-31T23:21:23.917Z,55.21
2022-07-31T23:23:52.057Z,55.45
2022-07-31T23:26:24.081Z,55.50
2022-07-31T23:28:52.979Z,55.62
2022-07-31T23:31:21.917Z,55.54
2022-07-31T23:33:50.413Z,56.09
2022-07-31T23:36:21.601Z,55.74
2022-07-31T23:38:49.781Z,55.68
2022-07-31T23:41:39.986Z,56.73
2022-07-31T23:44:09.853Z,57.10
2022-07-31T23:46:39.580Z,56.94
2022-07-31T23:49:09.226Z,57.87
2022-07-31T23:51:37.612Z,58.01
2022-07-31T23:54:06.369Z,57.07
2022-07-31T23:56:34.974Z,57.69
2022-07-31T23:59:03.148Z,57.88
